sensor_id;sensor_type;location;lat;lon;timestamp;temperature;humidity
44377;DHT22;30093;0.000;0.000;2022-09-01T00:00:55;14.90;99.90
44377;DHT22;30093;0.000;0.000;2022-09-01T00:04:44;15.00;1.00
44377;DHT22;30093;0.000;0.000;2022-09-01T00:08:33;15.10;1.00
44377;DHT22;30093;0.000;0.000;2022-09-01T00:12:23;15.10;1.00
44377;DHT22;30093;0.000;0.000;2022-09-01T00:16:13;15.10;1.00
44377;DHT22;30093;0.000;0.000;2022-09-01T00:20:02;15.10;1.00
44377;DHT22;30093;0.000;0.000;2022-09-01T00:23:52;15.10;1.00
44377;DHT22;30093;0.000;0.000;2022-09-01T00:27:40;15.00;99.90
44377;DHT22;30093;0.000;0.000;2022-09-01T00:31:28;15.00;1.00
44377;DHT22;30093;0.000;0.000;2022-09-01T00:35:18;14.90;1.00
44377;DHT22;30093;0.000;0.000;2022-09-01T00:39:07;14.80;1.00
44377;DHT22;30093;0.000;0.000;2022-09-01T00:42:56;14.80;1.00
44377;DHT22;30093;0.000;0.000;2022-09-01T00:46:48;14.70;99.90
44377;DHT22;30093;0.000;0.000;2022-09-01T00:50:36;14.70;99.90
44377;DHT22;30093;0.000;0.000;2022-09-01T00:54:30;14.60;1.00
44377;DHT22;30093;0.000;0.000;2022-09-01T00:58:19;14.60;1.00
44377;DHT22;30093;0.000;0.000;2022-09-01T01:02:08;14.60;1.00
44377;DHT22;30093;0.000;0.000;2022-09-01T01:06:00;14.60;99.90
44377;DHT22;30093;0.000;0.000;2022-09-01T01:09:50;14.60;1.00
44377;DHT22;30093;0.000;0.000;2022-09-01T01:14:00;14.50;1.00
44377;DHT22;30093;0.000;0.000;2022-09-01T01:17:52;14.50;1.00
44377;DHT22;30093;0.000;0.000;2022-09-01T01:21:42;14.30;1.00
44377;DHT22;30093;0.000;0.000;2022-09-01T01:25:52;14.40;1.00
44377;DHT22;30093;0.000;0.000;2022-09-01T01:29:41;14.50;99.90
44377;DHT22;30093;0.000;0.000;2022-09-01T01:33:43;14.40;99.90
44377;DHT22;30093;0.000;0.000;2022-09-01T01:37:35;14.40;99.90
44377;DHT22;30093;0.000;0.000;2022-09-01T01:41:23;12.90;1.00
44377;DHT22;30093;0.000;0.000;2022-09-01T01:45:16;14.20;99.90
44377;DHT22;30093;0.000;0.000;2022-09-01T01:49:05;14.30;99.90
44377;DHT22;30093;0.000;0.000;2022-09-01T01:52:54;14.40;1.00
44377;DHT22;30093;0.000;0.000;2022-09-01T01:56:49;14.40;19.50
44377;DHT22;30093;0.000;0.000;2022-09-01T02:00:37;14.50;99.90
44377;DHT22;30093;0.000;0.000;2022-09-01T02:04:26;14.40;1.00
44377;DHT22;30093;0.000;0.000;2022-09-01T02:08:25;14.50;99.90
44377;DHT22;30093;0.000;0.000;2022-09-01T02:12:14;14.40;99.90
44377;DHT22;30093;0.000;0.000;2022-09-01T02:16:08;14.40;1.00
44377;DHT22;30093;0.000;0.000;2022-09-01T02:20:00;14.30;99.90
44377;DHT22;30093;0.000;0.000;2022-09-01T02:23:56;14.20;99.90
44377;DHT22;30093;0.000;0.000;2022-09-01T02:27:51;14.20;1.00
44377;DHT22;30093;0.000;0.000;2022-09-01T02:31:44;14.20;1.00
44377;DHT22;30093;0.000;0.000;2022-09-01T02:35:36;14.20;99.90
44377;DHT22;30093;0.000;0.000;2022-09-01T02:39:29;14.10;1.00
44377;DHT22;30093;0.000;0.000;2022-09-01T02:43:20;14.10;1.00
44377;DHT22;30093;0.000;0.000;2022-09-01T02:47:09;14.10;1.00
44377;DHT22;30093;0.000;0.000;2022-09-01T02:50:59;14.10;1.00
44377;DHT22;30093;0.000;0.000;2022-09-01T02:54:49;14.20;1.00
44377;DHT22;30093;0.000;0.000;2022-09-01T02:58:41;14.10;1.00
44377;DHT22;30093;0.000;0.000;2022-09-01T03:02:33;14.00;1.00
44377;DHT22;30093;0.000;0.000;2022-09-01T03:06:24;14.00;1.00
44377;DHT22;30093;0.000;0.000;2022-09-01T03:10:13;14.00;1.00
44377;DHT22;30093;0.000;0.000;2022-09-01T03:14:04;14.00;1.00
44377;DHT22;30093;0.000;0.000;2022-09-01T03:17:52;13.90;1.00
44377;DHT22;30093;0.000;0.000;2022-09-01T03:21:43;13.80;1.00
44377;DHT22;30093;0.000;0.000;2022-09-01T03:25:33;13.80;1.00
44377;DHT22;30093;0.000;0.000;2022-09-01T03:29:21;13.80;1.00
44377;DHT22;30093;0.000;0.000;2022-09-01T03:33:11;13.80;1.00
44377;DHT22;30093;0.000;0.000;2022-09-01T03:37:00;13.80;99.90
44377;DHT22;30093;0.000;0.000;2022-09-01T03:40:53;13.80;90.30
44377;DHT22;30093;0.000;0.000;2022-09-01T03:44:41;13.90;1.00
44377;DHT22;30093;0.000;0.000;2022-09-01T03:48:31;13.90;1.00
44377;DHT22;30093;0.000;0.000;2022-09-01T03:52:19;13.80;99.90
44377;DHT22;30093;0.000;0.000;2022-09-01T03:56:10;13.80;1.00
44377;DHT22;30093;0.000;0.000;2022-09-01T04:00:01;13.80;1.00
44377;DHT22;30093;0.000;0.000;2022-09-01T04:03:50;13.70;99.90
44377;DHT22;30093;0.000;0.000;2022-09-01T04:07:43;13.70;1.00
44377;DHT22;30093;0.000;0.000;2022-09-01T04:11:33;13.70;1.00
44377;DHT22;30093;0.000;0.000;2022-09-01T04:15:25;13.80;99.90
44377;DHT22;30093;0.000;0.000;2022-09-01T04:19:16;13.80;1.00
44377;DHT22;30093;0.000;0.000;2022-09-01T04:23:08;14.00;1.00
44377;DHT22;30093;0.000;0.000;2022-09-01T04:27:00;14.00;1.00
44377;DHT22;30093;0.000;0.000;2022-09-01T04:30:51;14.10;1.00
44377;DHT22;30093;0.000;0.000;2022-09-01T04:34:44;14.10;1.00
44377;DHT22;30093;0.000;0.000;2022-09-01T04:38:36;14.10;99.90
44377;DHT22;30093;0.000;0.000;2022-09-01T04:42:26;14.20;1.00
44377;DHT22;30093;0.000;0.000;2022-09-01T04:46:18;14.20;1.00
44377;DHT22;30093;0.000;0.000;2022-09-01T04:50:08;14.20;1.00
44377;DHT22;30093;0.000;0.000;2022-09-01T04:54:32;14.30;1.00
44377;DHT22;30093;0.000;0.000;2022-09-01T04:58:23;14.40;1.00
44377;DHT22;30093;0.000;0.000;2022-09-01T05:02:12;14.60;1.00
44377;DHT22;30093;0.000;0.000;2022-09-01T05:06:00;14.70;1.00
44377;DHT22;30093;0.000;0.000;2022-09-01T05:09:52;14.90;1.70
44377;DHT22;30093;0.000;0.000;2022-09-01T05:14:02;15.10;99.90
44377;DHT22;30093;0.000;0.000;2022-09-01T05:17:52;15.40;99.90
44377;DHT22;30093;0.000;0.000;2022-09-01T05:21:44;15.80;1.00
44377;DHT22;30093;0.000;0.000;2022-09-01T05:25:39;16.70;1.00
44377;DHT22;30093;0.000;0.000;2022-09-01T05:29:28;18.50;99.90
44377;DHT22;30093;0.000;0.000;2022-09-01T05:33:17;19.90;1.00
44377;DHT22;30093;0.000;0.000;2022-09-01T05:37:07;21.80;1.00
44377;DHT22;30093;0.000;0.000;2022-09-01T05:41:01;24.10;1.00
44377;DHT22;30093;0.000;0.000;2022-09-01T05:44:50;26.60;1.00
44377;DHT22;30093;0.000;0.000;2022-09-01T05:48:39;27.60;1.00
44377;DHT22;30093;0.000;0.000;2022-09-01T05:52:37;26.30;1.00
44377;DHT22;30093;0.000;0.000;2022-09-01T05:56:27;27.10;1.00
44377;DHT22;30093;0.000;0.000;2022-09-01T06:00:15;31.20;1.00
44377;DHT22;30093;0.000;0.000;2022-09-01T06:04:09;29.60;1.00
44377;DHT22;30093;0.000;0.000;2022-09-01T06:07:57;25.40;1.00
44377;DHT22;30093;0.000;0.000;2022-09-01T06:11:47;23.10;1.00
44377;DHT22;30093;0.000;0.000;2022-09-01T06:15:36;21.70;1.00
44377;DHT22;30093;0.000;0.000;2022-09-01T06:19:27;20.80;1.00
44377;DHT22;30093;0.000;0.000;2022-09-01T06:23:16;20.30;1.00
44377;DHT22;30093;0.000;0.000;2022-09-01T06:27:08;20.50;1.00
44377;DHT22;30093;0.000;0.000;2022-09-01T06:30:57;21.70;1.00
44377;DHT22;30093;0.000;0.000;2022-09-01T06:34:46;22.40;1.00
44377;DHT22;30093;0.000;0.000;2022-09-01T06:38:38;23.20;1.00
44377;DHT22;30093;0.000;0.000;2022-09-01T06:42:29;25.20;1.00
44377;DHT22;30093;0.000;0.000;2022-09-01T06:46:23;26.30;1.00
44377;DHT22;30093;0.000;0.000;2022-09-01T06:50:20;29.20;1.00
44377;DHT22;30093;0.000;0.000;2022-09-01T06:54:08;29.30;1.00
44377;DHT22;30093;0.000;0.000;2022-09-01T06:58:07;30.10;1.00
44377;DHT22;30093;0.000;0.000;2022-09-01T07:01:58;29.10;1.00
44377;DHT22;30093;0.000;0.000;2022-09-01T07:06:09;36.00;1.00
44377;DHT22;30093;0.000;0.000;2022-09-01T07:10:17;34.80;1.00
44377;DHT22;30093;0.000;0.000;2022-09-01T07:14:22;32.00;1.00
44377;DHT22;30093;0.000;0.000;2022-09-01T07:18:12;32.20;1.00
44377;DHT22;30093;0.000;0.000;2022-09-01T07:22:03;30.70;1.00
44377;DHT22;30093;0.000;0.000;2022-09-01T07:25:54;32.10;1.00
44377;DHT22;30093;0.000;0.000;2022-09-01T07:29:52;31.50;1.00
44377;DHT22;30093;0.000;0.000;2022-09-01T07:33:43;31.70;1.00
44377;DHT22;30093;0.000;0.000;2022-09-01T07:37:35;36.80;1.00
44377;DHT22;30093;0.000;0.000;2022-09-01T07:41:26;34.80;1.00
44377;DHT22;30093;0.000;0.000;2022-09-01T07:45:48;31.10;1.00
44377;DHT22;30093;0.000;0.000;2022-09-01T07:49:38;28.40;1.00
44377;DHT22;30093;0.000;0.000;2022-09-01T07:53:30;26.30;1.00
44377;DHT22;30093;0.000;0.000;2022-09-01T07:57:20;26.20;1.00
44377;DHT22;30093;0.000;0.000;2022-09-01T08:01:13;26.80;1.00
44377;DHT22;30093;0.000;0.000;2022-09-01T08:05:11;27.50;1.00
44377;DHT22;30093;0.000;0.000;2022-09-01T08:09:01;26.50;1.00
44377;DHT22;30093;0.000;0.000;2022-09-01T08:12:54;26.40;1.00
44377;DHT22;30093;0.000;0.000;2022-09-01T08:16:42;25.10;1.00
44377;DHT22;30093;0.000;0.000;2022-09-01T08:20:37;25.10;1.00
44377;DHT22;30093;0.000;0.000;2022-09-01T08:24:56;25.50;1.00
44377;DHT22;30093;0.000;0.000;2022-09-01T08:28:45;25.00;1.00
44377;DHT22;30093;0.000;0.000;2022-09-01T08:32:36;24.20;1.00
44377;DHT22;30093;0.000;0.000;2022-09-01T08:36:25;24.40;1.00
44377;DHT22;30093;0.000;0.000;2022-09-01T08:40:17;24.50;1.00
44377;DHT22;30093;0.000;0.000;2022-09-01T08:44:15;24.00;1.00
44377;DHT22;30093;0.000;0.000;2022-09-01T08:48:38;23.60;1.00
44377;DHT22;30093;0.000;0.000;2022-09-01T08:57:00;23.10;1.00
44377;DHT22;30093;0.000;0.000;2022-09-01T09:01:15;22.00;1.00
44377;DHT22;30093;0.000;0.000;2022-09-01T09:05:25;22.20;1.00
44377;DHT22;30093;0.000;0.000;2022-09-01T09:09:15;22.30;1.00
44377;DHT22;30093;0.000;0.000;2022-09-01T09:13:10;22.80;1.00
44377;DHT22;30093;0.000;0.000;2022-09-01T09:17:05;22.90;1.00
44377;DHT22;30093;0.000;0.000;2022-09-01T09:20:56;22.90;1.00
44377;DHT22;30093;0.000;0.000;2022-09-01T09:28:52;20.40;1.00
44377;DHT22;30093;0.000;0.000;2022-09-01T09:33:02;20.60;1.00
44377;DHT22;30093;0.000;0.000;2022-09-01T09:36:51;21.40;1.00
44377;DHT22;30093;0.000;0.000;2022-09-01T09:44:49;21.70;1.00
44377;DHT22;30093;0.000;0.000;2022-09-01T09:48:39;22.00;1.00
44377;DHT22;30093;0.000;0.000;2022-09-01T09:52:28;21.70;1.00
44377;DHT22;30093;0.000;0.000;2022-09-01T09:56:20;21.80;1.00
44377;DHT22;30093;0.000;0.000;2022-09-01T10:00:30;21.80;1.00
44377;DHT22;30093;0.000;0.000;2022-09-01T10:04:36;21.50;1.00
44377;DHT22;30093;0.000;0.000;2022-09-01T10:12:24;21.30;1.00
44377;DHT22;30093;0.000;0.000;2022-09-01T10:16:21;21.40;1.00
44377;DHT22;30093;0.000;0.000;2022-09-01T10:20:23;21.30;1.00
44377;DHT22;30093;0.000;0.000;2022-09-01T10:28:15;20.90;1.00
44377;DHT22;30093;0.000;0.000;2022-09-01T10:32:07;20.70;1.00
44377;DHT22;30093;0.000;0.000;2022-09-01T10:35:57;21.10;1.00
44377;DHT22;30093;0.000;0.000;2022-09-01T10:40:11;21.50;1.00
44377;DHT22;30093;0.000;0.000;2022-09-01T10:44:10;21.60;1.00
44377;DHT22;30093;0.000;0.000;2022-09-01T10:56:43;21.20;1.00
44377;DHT22;30093;0.000;0.000;2022-09-01T11:21:22;21.50;1.00
44377;DHT22;30093;0.000;0.000;2022-09-01T11:25:37;21.10;1.00
44377;DHT22;30093;0.000;0.000;2022-09-01T11:30:02;21.20;1.00
44377;DHT22;30093;0.000;0.000;2022-09-01T11:34:20;21.20;1.00
44377;DHT22;30093;0.000;0.000;2022-09-01T11:38:13;21.30;1.00
44377;DHT22;30093;0.000;0.000;2022-09-01T11:42:18;21.40;1.00
44377;DHT22;30093;0.000;0.000;2022-09-01T11:46:31;21.00;1.00
44377;DHT22;30093;0.000;0.000;2022-09-01T11:50:29;20.90;1.00
44377;DHT22;30093;0.000;0.000;2022-09-01T11:54:19;20.80;1.00
44377;DHT22;30093;0.000;0.000;2022-09-01T11:58:13;21.00;1.00
44377;DHT22;30093;0.000;0.000;2022-09-01T12:02:03;21.00;1.00
44377;DHT22;30093;0.000;0.000;2022-09-01T12:06:00;21.40;1.00
44377;DHT22;30093;0.000;0.000;2022-09-01T12:09:50;21.70;1.00
44377;DHT22;30093;0.000;0.000;2022-09-01T12:13:40;22.00;1.00
44377;DHT22;30093;0.000;0.000;2022-09-01T12:17:28;22.20;1.00
44377;DHT22;30093;0.000;0.000;2022-09-01T12:21:34;22.20;1.00
44377;DHT22;30093;0.000;0.000;2022-09-01T12:25:28;22.00;1.00
44377;DHT22;30093;0.000;0.000;2022-09-01T12:29:20;21.50;1.00
44377;DHT22;30093;0.000;0.000;2022-09-01T12:33:12;21.20;1.00
44377;DHT22;30093;0.000;0.000;2022-09-01T12:37:08;20.90;1.00
44377;DHT22;30093;0.000;0.000;2022-09-01T12:40:57;20.90;1.00
44377;DHT22;30093;0.000;0.000;2022-09-01T12:44:54;20.70;1.00
44377;DHT22;30093;0.000;0.000;2022-09-01T12:48:44;20.60;1.00
44377;DHT22;30093;0.000;0.000;2022-09-01T12:52:35;20.70;1.00
44377;DHT22;30093;0.000;0.000;2022-09-01T12:56:36;21.10;1.00
44377;DHT22;30093;0.000;0.000;2022-09-01T13:00:32;21.30;1.00
44377;DHT22;30093;0.000;0.000;2022-09-01T13:08:17;20.70;1.00
44377;DHT22;30093;0.000;0.000;2022-09-01T13:12:17;20.40;1.00
44377;DHT22;30093;0.000;0.000;2022-09-01T13:16:05;20.50;1.00
44377;DHT22;30093;0.000;0.000;2022-09-01T13:20:01;20.60;1.00
44377;DHT22;30093;0.000;0.000;2022-09-01T13:23:50;20.60;1.00
44377;DHT22;30093;0.000;0.000;2022-09-01T13:27:39;20.60;1.00
44377;DHT22;30093;0.000;0.000;2022-09-01T13:31:32;20.40;1.00
44377;DHT22;30093;0.000;0.000;2022-09-01T13:35:21;20.30;1.00
44377;DHT22;30093;0.000;0.000;2022-09-01T13:39:11;20.40;1.00
44377;DHT22;30093;0.000;0.000;2022-09-01T13:42:59;20.40;1.00
44377;DHT22;30093;0.000;0.000;2022-09-01T13:46:48;20.50;1.00
44377;DHT22;30093;0.000;0.000;2022-09-01T13:50:37;20.50;1.00
44377;DHT22;30093;0.000;0.000;2022-09-01T13:54:26;20.40;1.00
44377;DHT22;30093;0.000;0.000;2022-09-01T13:58:15;20.30;1.00
44377;DHT22;30093;0.000;0.000;2022-09-01T14:02:03;20.30;1.00
44377;DHT22;30093;0.000;0.000;2022-09-01T14:05:52;20.30;1.00
44377;DHT22;30093;0.000;0.000;2022-09-01T14:09:40;20.30;1.00
44377;DHT22;30093;0.000;0.000;2022-09-01T14:13:28;20.20;1.00
44377;DHT22;30093;0.000;0.000;2022-09-01T14:17:21;20.20;1.00
44377;DHT22;30093;0.000;0.000;2022-09-01T14:21:14;20.10;1.00
44377;DHT22;30093;0.000;0.000;2022-09-01T14:25:03;20.10;1.00
44377;DHT22;30093;0.000;0.000;2022-09-01T14:28:52;20.00;1.00
44377;DHT22;30093;0.000;0.000;2022-09-01T14:32:42;20.00;1.00
44377;DHT22;30093;0.000;0.000;2022-09-01T14:36:32;20.00;1.00
44377;DHT22;30093;0.000;0.000;2022-09-01T14:40:21;20.00;1.00
44377;DHT22;30093;0.000;0.000;2022-09-01T14:44:10;20.00;1.00
44377;DHT22;30093;0.000;0.000;2022-09-01T14:48:00;20.00;1.00
44377;DHT22;30093;0.000;0.000;2022-09-01T14:51:48;20.00;1.00
44377;DHT22;30093;0.000;0.000;2022-09-01T14:55:37;20.00;1.00
44377;DHT22;30093;0.000;0.000;2022-09-01T14:59:26;20.10;1.00
44377;DHT22;30093;0.000;0.000;2022-09-01T15:03:14;20.20;1.00
44377;DHT22;30093;0.000;0.000;2022-09-01T15:07:02;20.20;1.00
44377;DHT22;30093;0.000;0.000;2022-09-01T15:10:52;20.20;1.00
44377;DHT22;30093;0.000;0.000;2022-09-01T15:14:40;20.10;1.00
44377;DHT22;30093;0.000;0.000;2022-09-01T15:18:29;20.00;1.00
44377;DHT22;30093;0.000;0.000;2022-09-01T15:22:17;19.80;1.00
44377;DHT22;30093;0.000;0.000;2022-09-01T15:26:06;19.80;1.00
44377;DHT22;30093;0.000;0.000;2022-09-01T15:29:54;19.70;1.00
44377;DHT22;30093;0.000;0.000;2022-09-01T15:33:43;19.60;1.00
44377;DHT22;30093;0.000;0.000;2022-09-01T15:37:32;19.50;1.00
44377;DHT22;30093;0.000;0.000;2022-09-01T15:41:26;19.50;1.00
44377;DHT22;30093;0.000;0.000;2022-09-01T15:45:18;19.50;1.00
44377;DHT22;30093;0.000;0.000;2022-09-01T15:49:08;19.50;1.00
44377;DHT22;30093;0.000;0.000;2022-09-01T15:52:58;19.50;1.00
44377;DHT22;30093;0.000;0.000;2022-09-01T15:56:48;19.10;1.00
44377;DHT22;30093;0.000;0.000;2022-09-01T16:00:37;19.30;1.00
44377;DHT22;30093;0.000;0.000;2022-09-01T16:04:25;19.10;1.00
44377;DHT22;30093;0.000;0.000;2022-09-01T16:08:14;19.00;1.00
44377;DHT22;30093;0.000;0.000;2022-09-01T16:12:04;18.90;1.00
44377;DHT22;30093;0.000;0.000;2022-09-01T16:16:22;18.90;1.00
44377;DHT22;30093;0.000;0.000;2022-09-01T16:24:42;18.80;1.00
44377;DHT22;30093;0.000;0.000;2022-09-01T16:28:32;18.70;1.00
44377;DHT22;30093;0.000;0.000;2022-09-01T16:32:22;18.80;1.00
44377;DHT22;30093;0.000;0.000;2022-09-01T16:36:50;18.90;1.00
44377;DHT22;30093;0.000;0.000;2022-09-01T16:40:54;18.90;1.00
44377;DHT22;30093;0.000;0.000;2022-09-01T16:49:14;19.00;1.00
44377;DHT22;30093;0.000;0.000;2022-09-01T16:57:24;18.80;1.00
44377;DHT22;30093;0.000;0.000;2022-09-01T17:01:39;18.70;1.00
44377;DHT22;30093;0.000;0.000;2022-09-01T17:05:47;18.60;1.00
44377;DHT22;30093;0.000;0.000;2022-09-01T17:10:05;18.50;1.00
44377;DHT22;30093;0.000;0.000;2022-09-01T17:14:01;18.40;1.00
44377;DHT22;30093;0.000;0.000;2022-09-01T17:22:05;18.30;1.00
44377;DHT22;30093;0.000;0.000;2022-09-01T17:25:59;18.20;1.00
44377;DHT22;30093;0.000;0.000;2022-09-01T17:29:52;18.10;1.00
44377;DHT22;30093;0.000;0.000;2022-09-01T17:33:57;18.00;1.00
44377;DHT22;30093;0.000;0.000;2022-09-01T17:55:16;17.40;1.00
44377;DHT22;30093;0.000;0.000;2022-09-01T17:59:17;17.30;1.00
44377;DHT22;30093;0.000;0.000;2022-09-01T18:11:54;17.00;1.00
44377;DHT22;30093;0.000;0.000;2022-09-01T18:15:52;16.90;1.00
44377;DHT22;30093;0.000;0.000;2022-09-01T18:19:49;16.80;1.00
44377;DHT22;30093;0.000;0.000;2022-09-01T18:23:41;16.80;1.00
44377;DHT22;30093;0.000;0.000;2022-09-01T18:27:48;16.70;1.00
44377;DHT22;30093;0.000;0.000;2022-09-01T18:32:09;16.60;1.00
44377;DHT22;30093;0.000;0.000;2022-09-01T18:48:44;16.10;1.00
44377;DHT22;30093;0.000;0.000;2022-09-01T18:53:04;15.90;1.00
44377;DHT22;30093;0.000;0.000;2022-09-01T18:57:06;15.90;1.00
44377;DHT22;30093;0.000;0.000;2022-09-01T19:01:20;15.90;27.20
44377;DHT22;30093;0.000;0.000;2022-09-01T19:05:30;15.80;50.60
44377;DHT22;30093;0.000;0.000;2022-09-01T19:14:13;14.10;99.90
44377;DHT22;30093;0.000;0.000;2022-09-01T19:18:10;15.50;99.90
44377;DHT22;30093;0.000;0.000;2022-09-01T19:22:02;15.40;99.90
44377;DHT22;30093;0.000;0.000;2022-09-01T19:25:56;15.50;99.90
44377;DHT22;30093;0.000;0.000;2022-09-01T19:29:52;15.30;99.90
44377;DHT22;30093;0.000;0.000;2022-09-01T19:33:47;14.90;99.90
44377;DHT22;30093;0.000;0.000;2022-09-01T19:37:36;15.00;1.00
44377;DHT22;30093;0.000;0.000;2022-09-01T19:50:09;15.10;99.90
44377;DHT22;30093;0.000;0.000;2022-09-01T19:54:00;15.10;99.90
44377;DHT22;30093;0.000;0.000;2022-09-01T20:01:50;15.30;99.90
44377;DHT22;30093;0.000;0.000;2022-09-01T20:06:07;15.30;99.90
44377;DHT22;30093;0.000;0.000;2022-09-01T20:10:19;15.20;99.90
44377;DHT22;30093;0.000;0.000;2022-09-01T20:18:26;15.10;99.90
44377;DHT22;30093;0.000;0.000;2022-09-01T20:26:34;15.00;99.90
44377;DHT22;30093;0.000;0.000;2022-09-01T20:30:36;15.00;99.90
44377;DHT22;30093;0.000;0.000;2022-09-01T20:38:53;14.80;1.00
44377;DHT22;30093;0.000;0.000;2022-09-01T20:47:07;14.80;1.00
44377;DHT22;30093;0.000;0.000;2022-09-01T20:55:09;14.70;1.00
44377;DHT22;30093;0.000;0.000;2022-09-01T20:59:31;14.70;1.00
44377;DHT22;30093;0.000;0.000;2022-09-01T21:07:20;14.60;1.00
44377;DHT22;30093;0.000;0.000;2022-09-01T21:16:13;14.40;1.00
44377;DHT22;30093;0.000;0.000;2022-09-01T21:20:16;14.30;1.00
44377;DHT22;30093;0.000;0.000;2022-09-01T21:24:09;14.10;1.60
44377;DHT22;30093;0.000;0.000;2022-09-01T21:28:00;14.10;39.10
44377;DHT22;30093;0.000;0.000;2022-09-01T21:31:49;14.00;99.90
44377;DHT22;30093;0.000;0.000;2022-09-01T21:35:38;13.90;99.90
44377;DHT22;30093;0.000;0.000;2022-09-01T21:39:33;13.80;99.90
44377;DHT22;30093;0.000;0.000;2022-09-01T21:43:34;13.80;99.90
44377;DHT22;30093;0.000;0.000;2022-09-01T21:47:24;13.70;99.90
44377;DHT22;30093;0.000;0.000;2022-09-01T21:51:12;13.90;99.90
44377;DHT22;30093;0.000;0.000;2022-09-01T21:55:00;13.90;99.90
44377;DHT22;30093;0.000;0.000;2022-09-01T21:58:49;13.90;99.90
44377;DHT22;30093;0.000;0.000;2022-09-01T22:02:37;13.70;1.00
44377;DHT22;30093;0.000;0.000;2022-09-01T22:06:26;13.60;1.00
44377;DHT22;30093;0.000;0.000;2022-09-01T22:10:16;13.50;1.00
44377;DHT22;30093;0.000;0.000;2022-09-01T22:14:06;13.40;17.00
44377;DHT22;30093;0.000;0.000;2022-09-01T22:17:55;13.40;36.40
44377;DHT22;30093;0.000;0.000;2022-09-01T22:21:44;13.30;99.90
44377;DHT22;30093;0.000;0.000;2022-09-01T22:25:33;13.30;99.90
44377;DHT22;30093;0.000;0.000;2022-09-01T22:29:22;13.20;1.00
44377;DHT22;30093;0.000;0.000;2022-09-01T22:33:13;13.20;1.00
44377;DHT22;30093;0.000;0.000;2022-09-01T22:37:01;13.20;1.00
44377;DHT22;30093;0.000;0.000;2022-09-01T22:40:59;13.40;1.00
44377;DHT22;30093;0.000;0.000;2022-09-01T22:44:48;13.40;99.90
44377;DHT22;30093;0.000;0.000;2022-09-01T22:48:36;13.40;67.70
44377;DHT22;30093;0.000;0.000;2022-09-01T22:52:25;13.30;99.90
44377;DHT22;30093;0.000;0.000;2022-09-01T22:56:18;13.30;99.90
44377;DHT22;30093;0.000;0.000;2022-09-01T23:00:08;13.20;1.00
44377;DHT22;30093;0.000;0.000;2022-09-01T23:03:57;13.20;1.00
44377;DHT22;30093;0.000;0.000;2022-09-01T23:07:51;13.20;1.00
44377;DHT22;30093;0.000;0.000;2022-09-01T23:11:40;13.20;1.00
44377;DHT22;30093;0.000;0.000;2022-09-01T23:15:29;13.20;99.90
44377;DHT22;30093;0.000;0.000;2022-09-01T23:19:20;13.20;1.00
44377;DHT22;30093;0.000;0.000;2022-09-01T23:23:09;13.20;1.00
44377;DHT22;30093;0.000;0.000;2022-09-01T23:26:57;13.20;1.00
44377;DHT22;30093;0.000;0.000;2022-09-01T23:30:47;13.20;1.00
44377;DHT22;30093;0.000;0.000;2022-09-01T23:34:37;13.20;1.00
44377;DHT22;30093;0.000;0.000;2022-09-01T23:38:26;13.10;1.00
44377;DHT22;30093;0.000;0.000;2022-09-01T23:42:14;13.10;1.00
44377;DHT22;30093;0.000;0.000;2022-09-01T23:46:03;13.10;1.00
44377;DHT22;30093;0.000;0.000;2022-09-01T23:49:52;13.10;1.00
44377;DHT22;30093;0.000;0.000;2022-09-01T23:53:40;13.00;1.00
44377;DHT22;30093;0.000;0.000;2022-09-01T23:57:28;13.00;1.00
